sensor_id;sensor_type;location;lat;lon;timestamp;pressure;altitude;pressure_sealevel;temperature;humidity
16120;BME280;12670;53.502;10.252;2023-04-07T00:01:29;101446.31;;;7.33;52.33
16120;BME280;12670;53.502;10.252;2023-04-07T00:04:32;101450.31;;;7.57;53.09
16120;BME280;12670;53.502;10.252;2023-04-07T00:07:37;101443.50;;;7.42;52.18
16120;BME280;12670;53.502;10.252;2023-04-07T00:10:55;101449.56;;;7.47;52.43
16120;BME280;12670;53.502;10.252;2023-04-07T00:13:58;101440.03;;;7.40;53.04
16120;BME280;12670;53.502;10.252;2023-04-07T00:17:01;101451.47;;;7.41;52.74
16120;BME280;12670;53.502;10.252;2023-04-07T00:20:05;101443.53;;;7.41;52.12
16120;BME280;12670;53.502;10.252;2023-04-07T00:23:09;101450.66;;;7.36;52.55
16120;BME280;12670;53.502;10.252;2023-04-07T00:26:12;101451.72;;;7.26;52.86
16120;BME280;12670;53.502;10.252;2023-04-07T00:29:15;101447.50;;;7.15;52.75
16120;BME280;12670;53.502;10.252;2023-04-07T00:32:17;101448.16;;;7.28;53.55
16120;BME280;12670;53.502;10.252;2023-04-07T00:35:20;101444.91;;;7.12;54.74
16120;BME280;12670;53.502;10.252;2023-04-07T00:38:24;101438.53;;;7.24;54.02
16120;BME280;12670;53.502;10.252;2023-04-07T00:41:27;101443.81;;;7.24;54.05
16120;BME280;12670;53.502;10.252;2023-04-07T00:44:30;101434.47;;;7.03;53.51
16120;BME280;12670;53.502;10.252;2023-04-07T00:47:32;101444.88;;;7.15;53.50
16120;BME280;12670;53.502;10.252;2023-04-07T00:50:35;101442.13;;;7.20;53.79
16120;BME280;12670;53.502;10.252;2023-04-07T00:53:39;101435.84;;;7.29;54.42
16120;BME280;12670;53.502;10.252;2023-04-07T00:56:42;101442.34;;;7.06;55.12
16120;BME280;12670;53.502;10.252;2023-04-07T00:59:44;101436.19;;;7.07;54.69
16120;BME280;12670;53.502;10.252;2023-04-07T01:02:54;101443.22;;;7.07;54.88
16120;BME280;12670;53.502;10.252;2023-04-07T01:06:00;101441.53;;;7.04;54.77
16120;BME280;12670;53.502;10.252;2023-04-07T01:09:11;101438.81;;;7.07;54.28
16120;BME280;12670;53.502;10.252;2023-04-07T01:12:20;101438.94;;;7.00;54.82
16120;BME280;12670;53.502;10.252;2023-04-07T01:15:26;101436.34;;;6.97;54.61
16120;BME280;12670;53.502;10.252;2023-04-07T01:18:32;101438.94;;;7.00;54.22
16120;BME280;12670;53.502;10.252;2023-04-07T01:21:36;101436.38;;;6.95;54.39
16120;BME280;12670;53.502;10.252;2023-04-07T01:25:00;101438.47;;;6.75;54.86
16120;BME280;12670;53.502;10.252;2023-04-07T01:28:25;101434.75;;;6.88;55.58
16120;BME280;12670;53.502;10.252;2023-04-07T01:31:35;101431.50;;;6.67;54.97
16120;BME280;12670;53.502;10.252;2023-04-07T01:34:39;101430.88;;;6.52;55.50
16120;BME280;12670;53.502;10.252;2023-04-07T01:37:43;101425.66;;;6.47;56.06
16120;BME280;12670;53.502;10.252;2023-04-07T01:40:49;101434.94;;;6.74;55.24
16120;BME280;12670;53.502;10.252;2023-04-07T01:43:53;101435.09;;;6.62;55.56
16120;BME280;12670;53.502;10.252;2023-04-07T01:46:58;101431.28;;;6.83;55.39
16120;BME280;12670;53.502;10.252;2023-04-07T01:50:02;101429.56;;;6.82;54.03
16120;BME280;12670;53.502;10.252;2023-04-07T01:53:06;101434.03;;;6.77;54.85
16120;BME280;12670;53.502;10.252;2023-04-07T01:56:09;101429.88;;;6.60;55.73
16120;BME280;12670;53.502;10.252;2023-04-07T01:59:12;101436.00;;;6.61;54.97
16120;BME280;12670;53.502;10.252;2023-04-07T02:02:16;101436.16;;;6.52;55.19
16120;BME280;12670;53.502;10.252;2023-04-07T02:05:20;101432.38;;;6.68;55.09
16120;BME280;12670;53.502;10.252;2023-04-07T02:08:26;101430.66;;;6.68;55.12
16120;BME280;12670;53.502;10.252;2023-04-07T02:11:33;101441.75;;;6.26;56.58
16120;BME280;12670;53.502;10.252;2023-04-07T02:14:37;101442.91;;;6.03;55.81
16120;BME280;12670;53.502;10.252;2023-04-07T02:17:43;101443.31;;;6.42;56.33
16120;BME280;12670;53.502;10.252;2023-04-07T02:20:49;101449.63;;;6.29;55.80
16120;BME280;12670;53.502;10.252;2023-04-07T02:23:53;101435.66;;;6.24;56.05
16120;BME280;12670;53.502;10.252;2023-04-07T02:26:56;101444.53;;;6.17;55.31
16120;BME280;12670;53.502;10.252;2023-04-07T02:30:01;101439.19;;;6.20;56.69
16120;BME280;12670;53.502;10.252;2023-04-07T02:33:05;101442.84;;;6.09;56.11
16120;BME280;12670;53.502;10.252;2023-04-07T02:36:08;101444.22;;;6.38;55.62
16120;BME280;12670;53.502;10.252;2023-04-07T02:39:10;101448.59;;;6.39;56.08
16120;BME280;12670;53.502;10.252;2023-04-07T02:42:13;101447.59;;;6.49;55.37
16120;BME280;12670;53.502;10.252;2023-04-07T02:45:16;101445.06;;;6.41;54.98
16120;BME280;12670;53.502;10.252;2023-04-07T02:48:20;101440.59;;;6.48;56.13
16120;BME280;12670;53.502;10.252;2023-04-07T02:51:22;101447.84;;;6.31;55.37
16120;BME280;12670;53.502;10.252;2023-04-07T02:54:25;101445.34;;;6.22;55.20
16120;BME280;12670;53.502;10.252;2023-04-07T02:57:27;101453.78;;;6.47;55.04
16120;BME280;12670;53.502;10.252;2023-04-07T03:00:30;101446.19;;;6.24;55.45
16120;BME280;12670;53.502;10.252;2023-04-07T03:03:34;101447.75;;;6.40;54.10
16120;BME280;12670;53.502;10.252;2023-04-07T03:06:37;101454.75;;;6.41;54.61
16120;BME280;12670;53.502;10.252;2023-04-07T03:09:39;101445.94;;;6.42;54.77
16120;BME280;12670;53.502;10.252;2023-04-07T03:12:42;101441.38;;;6.55;54.64
16120;BME280;12670;53.502;10.252;2023-04-07T03:15:45;101446.03;;;6.36;54.29
16120;BME280;12670;53.502;10.252;2023-04-07T03:18:49;101447.91;;;6.28;53.49
16120;BME280;12670;53.502;10.252;2023-04-07T03:21:52;101452.66;;;5.98;56.22
16120;BME280;12670;53.502;10.252;2023-04-07T03:24:54;101452.28;;;6.27;55.31
16120;BME280;12670;53.502;10.252;2023-04-07T03:27:57;101453.16;;;6.28;54.60
16120;BME280;12670;53.502;10.252;2023-04-07T03:31:00;101457.50;;;6.30;54.35
16120;BME280;12670;53.502;10.252;2023-04-07T03:34:04;101457.34;;;6.43;54.84
16120;BME280;12670;53.502;10.252;2023-04-07T03:37:07;101447.06;;;6.24;55.22
16120;BME280;12670;53.502;10.252;2023-04-07T03:40:10;101456.69;;;6.28;54.29
16120;BME280;12670;53.502;10.252;2023-04-07T03:43:13;101459.50;;;6.13;55.03
16120;BME280;12670;53.502;10.252;2023-04-07T03:46:18;101457.69;;;6.15;55.36
16120;BME280;12670;53.502;10.252;2023-04-07T03:49:22;101466.56;;;6.08;55.71
16120;BME280;12670;53.502;10.252;2023-04-07T03:52:25;101470.09;;;6.07;54.69
16120;BME280;12670;53.502;10.252;2023-04-07T03:55:27;101465.47;;;6.26;55.74
16120;BME280;12670;53.502;10.252;2023-04-07T03:58:30;101470.13;;;6.02;54.90
16120;BME280;12670;53.502;10.252;2023-04-07T04:01:32;101471.72;;;6.19;54.33
16120;BME280;12670;53.502;10.252;2023-04-07T04:04:37;101476.97;;;6.20;55.33
16120;BME280;12670;53.502;10.252;2023-04-07T04:07:40;101490.19;;;6.15;55.04
16120;BME280;12670;53.502;10.252;2023-04-07T04:10:43;101482.22;;;6.20;55.27
16120;BME280;12670;53.502;10.252;2023-04-07T04:13:45;101490.25;;;6.09;55.02
16120;BME280;12670;53.502;10.252;2023-04-07T04:16:48;101491.13;;;6.11;54.89
16120;BME280;12670;53.502;10.252;2023-04-07T04:19:52;101491.06;;;6.18;54.95
16120;BME280;12670;53.502;10.252;2023-04-07T04:22:55;101497.47;;;5.92;55.47
16120;BME280;12670;53.502;10.252;2023-04-07T04:25:58;101499.84;;;6.15;54.71
16120;BME280;12670;53.502;10.252;2023-04-07T04:29:04;101497.25;;;6.13;54.05
16120;BME280;12670;53.502;10.252;2023-04-07T04:32:06;101499.91;;;6.12;54.81
16120;BME280;12670;53.502;10.252;2023-04-07T04:35:10;101498.09;;;6.14;55.78
16120;BME280;12670;53.502;10.252;2023-04-07T04:38:13;101500.94;;;5.99;55.14
16120;BME280;12670;53.502;10.252;2023-04-07T04:41:16;101510.56;;;6.01;55.12
16120;BME280;12670;53.502;10.252;2023-04-07T04:44:18;101512.53;;;5.73;55.66
16120;BME280;12670;53.502;10.252;2023-04-07T04:47:21;101512.38;;;5.95;56.35
16120;BME280;12670;53.502;10.252;2023-04-07T04:50:25;101510.63;;;5.91;54.95
16120;BME280;12670;53.502;10.252;2023-04-07T04:53:28;101521.16;;;5.91;54.50
16120;BME280;12670;53.502;10.252;2023-04-07T04:56:31;101515.03;;;5.88;55.92
16120;BME280;12670;53.502;10.252;2023-04-07T04:59:33;101517.59;;;5.98;56.00
16120;BME280;12670;53.502;10.252;2023-04-07T05:02:36;101525.47;;;6.02;55.09
16120;BME280;12670;53.502;10.252;2023-04-07T05:05:40;101523.84;;;5.86;54.68
16120;BME280;12670;53.502;10.252;2023-04-07T05:08:43;101528.91;;;6.10;55.31
16120;BME280;12670;53.502;10.252;2023-04-07T05:11:46;101533.41;;;5.99;55.23
16120;BME280;12670;53.502;10.252;2023-04-07T05:14:48;101530.72;;;6.02;55.03
16120;BME280;12670;53.502;10.252;2023-04-07T05:17:51;101541.13;;;6.14;55.10
16120;BME280;12670;53.502;10.252;2023-04-07T05:20:55;101549.88;;;6.20;54.95
16120;BME280;12670;53.502;10.252;2023-04-07T05:23:58;101541.47;;;5.81;54.48
16120;BME280;12670;53.502;10.252;2023-04-07T05:27:01;101545.78;;;5.85;54.80
16120;BME280;12670;53.502;10.252;2023-04-07T05:30:04;101549.03;;;6.14;54.92
16120;BME280;12670;53.502;10.252;2023-04-07T05:33:07;101552.53;;;6.15;54.84
16120;BME280;12670;53.502;10.252;2023-04-07T05:36:11;101553.25;;;6.31;54.59
16120;BME280;12670;53.502;10.252;2023-04-07T05:39:14;101554.16;;;6.27;55.39
16120;BME280;12670;53.502;10.252;2023-04-07T05:42:17;101562.28;;;6.08;55.75
16120;BME280;12670;53.502;10.252;2023-04-07T05:45:19;101558.66;;;6.19;54.25
16120;BME280;12670;53.502;10.252;2023-04-07T05:48:22;101568.28;;;6.24;54.54
16120;BME280;12670;53.502;10.252;2023-04-07T05:51:26;101563.63;;;6.45;53.80
16120;BME280;12670;53.502;10.252;2023-04-07T05:54:28;101563.09;;;6.15;54.62
16120;BME280;12670;53.502;10.252;2023-04-07T05:57:31;101568.09;;;6.38;53.08
16120;BME280;12670;53.502;10.252;2023-04-07T06:00:34;101567.97;;;6.50;53.13
16120;BME280;12670;53.502;10.252;2023-04-07T06:03:37;101583.59;;;6.67;53.92
16120;BME280;12670;53.502;10.252;2023-04-07T06:06:43;101582.91;;;6.50;53.39
16120;BME280;12670;53.502;10.252;2023-04-07T06:09:45;101582.72;;;6.66;52.68
16120;BME280;12670;53.502;10.252;2023-04-07T06:12:48;101585.38;;;6.65;53.04
16120;BME280;12670;53.502;10.252;2023-04-07T06:15:50;101583.66;;;6.61;53.05
16120;BME280;12670;53.502;10.252;2023-04-07T06:18:53;101593.09;;;6.82;52.42
16120;BME280;12670;53.502;10.252;2023-04-07T06:21:57;101595.75;;;6.80;52.76
16120;BME280;12670;53.502;10.252;2023-04-07T06:25:00;101599.09;;;6.91;52.06
16120;BME280;12670;53.502;10.252;2023-04-07T06:28:02;101601.03;;;6.79;51.50
16120;BME280;12670;53.502;10.252;2023-04-07T06:31:06;101601.69;;;6.96;51.81
16120;BME280;12670;53.502;10.252;2023-04-07T06:34:09;101607.81;;;7.00;51.83
16120;BME280;12670;53.502;10.252;2023-04-07T06:37:13;101610.25;;;7.13;51.65
16120;BME280;12670;53.502;10.252;2023-04-07T06:40:17;101612.78;;;7.21;50.92
16120;BME280;12670;53.502;10.252;2023-04-07T06:43:20;101613.44;;;7.37;51.76
16120;BME280;12670;53.502;10.252;2023-04-07T06:46:22;101618.34;;;7.61;51.63
16120;BME280;12670;53.502;10.252;2023-04-07T06:49:26;101608.47;;;7.74;50.04
16120;BME280;12670;53.502;10.252;2023-04-07T06:52:30;101618.91;;;7.82;52.47
16120;BME280;12670;53.502;10.252;2023-04-07T06:55:33;101626.94;;;7.75;51.80
16120;BME280;12670;53.502;10.252;2023-04-07T06:58:36;101621.84;;;8.16;50.78
16120;BME280;12670;53.502;10.252;2023-04-07T07:01:39;101623.22;;;8.38;49.88
16120;BME280;12670;53.502;10.252;2023-04-07T07:04:42;101620.91;;;8.18;48.81
16120;BME280;12670;53.502;10.252;2023-04-07T07:07:46;101624.25;;;8.29;49.76
16120;BME280;12670;53.502;10.252;2023-04-07T07:10:49;101624.19;;;8.33;50.40
16120;BME280;12670;53.502;10.252;2023-04-07T07:13:51;101629.09;;;8.54;48.62
16120;BME280;12670;53.502;10.252;2023-04-07T07:16:54;101630.97;;;8.94;47.77
16120;BME280;12670;53.502;10.252;2023-04-07T07:19:56;101632.13;;;8.80;49.19
16120;BME280;12670;53.502;10.252;2023-04-07T07:23:00;101637.16;;;8.93;50.39
16120;BME280;12670;53.502;10.252;2023-04-07T07:26:03;101632.41;;;9.08;47.75
16120;BME280;12670;53.502;10.252;2023-04-07T07:29:06;101628.38;;;9.31;47.33
16120;BME280;12670;53.502;10.252;2023-04-07T07:32:08;101636.09;;;9.42;48.14
16120;BME280;12670;53.502;10.252;2023-04-07T07:35:11;101646.25;;;9.60;48.29
16120;BME280;12670;53.502;10.252;2023-04-07T07:38:15;101640.47;;;9.81;46.82
16120;BME280;12670;53.502;10.252;2023-04-07T07:41:17;101646.91;;;9.70;46.79
16120;BME280;12670;53.502;10.252;2023-04-07T07:44:21;101647.78;;;9.70;45.91
16120;BME280;12670;53.502;10.252;2023-04-07T07:47:24;101652.88;;;9.79;45.95
16120;BME280;12670;53.502;10.252;2023-04-07T07:50:27;101658.50;;;10.03;46.81
16120;BME280;12670;53.502;10.252;2023-04-07T07:53:31;101658.34;;;10.07;45.68
16120;BME280;12670;53.502;10.252;2023-04-07T07:56:34;101662.63;;;10.13;44.91
16120;BME280;12670;53.502;10.252;2023-04-07T07:59:37;101664.41;;;10.12;43.95
16120;BME280;12670;53.502;10.252;2023-04-07T08:02:40;101665.75;;;10.30;44.97
16120;BME280;12670;53.502;10.252;2023-04-07T08:05:43;101664.13;;;10.59;44.39
16120;BME280;12670;53.502;10.252;2023-04-07T08:08:48;101668.00;;;10.78;45.92
16120;BME280;12670;53.502;10.252;2023-04-07T08:11:50;101675.03;;;11.12;45.24
16120;BME280;12670;53.502;10.252;2023-04-07T08:14:53;101676.34;;;10.97;42.56
16120;BME280;12670;53.502;10.252;2023-04-07T08:17:56;101678.22;;;10.93;42.10
16120;BME280;12670;53.502;10.252;2023-04-07T08:21:00;101677.72;;;11.10;44.03
16120;BME280;12670;53.502;10.252;2023-04-07T08:24:04;101684.97;;;11.35;42.80
16120;BME280;12670;53.502;10.252;2023-04-07T08:27:07;101678.97;;;11.58;42.86
16120;BME280;12670;53.502;10.252;2023-04-07T08:30:10;101676.56;;;11.48;42.03
16120;BME280;12670;53.502;10.252;2023-04-07T08:33:12;101670.56;;;11.99;41.97
16120;BME280;12670;53.502;10.252;2023-04-07T08:36:15;101669.22;;;12.13;40.49
16120;BME280;12670;53.502;10.252;2023-04-07T08:39:19;101678.75;;;12.20;40.01
16120;BME280;12670;53.502;10.252;2023-04-07T08:42:27;101666.06;;;12.28;38.39
16120;BME280;12670;53.502;10.252;2023-04-07T08:45:30;101681.88;;;12.33;39.45
16120;BME280;12670;53.502;10.252;2023-04-07T08:48:36;101679.22;;;12.58;40.58
16120;BME280;12670;53.502;10.252;2023-04-07T08:51:44;101688.69;;;12.15;39.38
16120;BME280;12670;53.502;10.252;2023-04-07T08:54:49;101687.75;;;12.16;38.99
16120;BME280;12670;53.502;10.252;2023-04-07T08:57:53;101684.25;;;12.40;39.33
16120;BME280;12670;53.502;10.252;2023-04-07T09:00:57;101679.59;;;12.47;39.75
16120;BME280;12670;53.502;10.252;2023-04-07T09:04:01;101680.66;;;12.68;39.69
16120;BME280;12670;53.502;10.252;2023-04-07T09:07:04;101677.31;;;12.86;40.24
16120;BME280;12670;53.502;10.252;2023-04-07T09:10:08;101684.44;;;13.34;38.91
16120;BME280;12670;53.502;10.252;2023-04-07T09:13:11;101687.88;;;13.13;37.43
16120;BME280;12670;53.502;10.252;2023-04-07T09:16:14;101687.91;;;13.36;36.92
16120;BME280;12670;53.502;10.252;2023-04-07T09:19:16;101691.88;;;13.26;37.15
16120;BME280;12670;53.502;10.252;2023-04-07T09:22:33;101689.25;;;13.24;37.39
16120;BME280;12670;53.502;10.252;2023-04-07T09:25:37;101685.59;;;13.27;35.83
16120;BME280;12670;53.502;10.252;2023-04-07T09:28:41;101690.47;;;13.39;37.03
16120;BME280;12670;53.502;10.252;2023-04-07T09:31:45;101683.38;;;13.62;39.13
16120;BME280;12670;53.502;10.252;2023-04-07T09:34:57;101671.38;;;14.16;37.82
16120;BME280;12670;53.502;10.252;2023-04-07T09:38:01;101676.78;;;14.77;38.80
16120;BME280;12670;53.502;10.252;2023-04-07T09:41:07;101676.44;;;15.24;35.06
16120;BME280;12670;53.502;10.252;2023-04-07T09:44:10;101674.00;;;15.19;33.14
16120;BME280;12670;53.502;10.252;2023-04-07T09:47:13;101676.44;;;15.24;36.20
16120;BME280;12670;53.502;10.252;2023-04-07T09:50:29;101671.44;;;14.97;34.20
16120;BME280;12670;53.502;10.252;2023-04-07T09:53:43;101678.44;;;14.59;34.31
16120;BME280;12670;53.502;10.252;2023-04-07T09:56:48;101672.28;;;14.77;34.92
16120;BME280;12670;53.502;10.252;2023-04-07T09:59:52;101680.09;;;15.02;33.52
16120;BME280;12670;53.502;10.252;2023-04-07T10:02:56;101671.47;;;14.56;34.51
16120;BME280;12670;53.502;10.252;2023-04-07T10:05:59;101664.50;;;14.73;33.17
16120;BME280;12670;53.502;10.252;2023-04-07T10:09:02;101674.16;;;15.72;33.81
16120;BME280;12670;53.502;10.252;2023-04-07T10:12:06;101659.38;;;15.45;33.04
16120;BME280;12670;53.502;10.252;2023-04-07T10:15:11;101666.47;;;15.46;32.72
16120;BME280;12670;53.502;10.252;2023-04-07T10:18:16;101667.59;;;15.59;31.61
16120;BME280;12670;53.502;10.252;2023-04-07T10:21:22;101667.72;;;15.00;32.76
16120;BME280;12670;53.502;10.252;2023-04-07T10:24:42;101672.97;;;15.22;31.95
16120;BME280;12670;53.502;10.252;2023-04-07T10:27:50;101679.59;;;14.74;34.25
16120;BME280;12670;53.502;10.252;2023-04-07T10:30:54;101676.59;;;15.20;33.76
16120;BME280;12670;53.502;10.252;2023-04-07T10:33:58;101669.94;;;15.48;33.43
16120;BME280;12670;53.502;10.252;2023-04-07T10:37:10;101665.50;;;16.21;33.24
16120;BME280;12670;53.502;10.252;2023-04-07T10:40:27;101673.38;;;15.88;33.26
16120;BME280;12670;53.502;10.252;2023-04-07T10:43:38;101663.41;;;15.91;32.74
16120;BME280;12670;53.502;10.252;2023-04-07T10:47:03;101652.34;;;16.34;34.92
16120;BME280;12670;53.502;10.252;2023-04-07T10:50:17;101659.22;;;15.86;31.97
16120;BME280;12670;53.502;10.252;2023-04-07T10:53:20;101663.78;;;16.37;32.84
16120;BME280;12670;53.502;10.252;2023-04-07T10:56:24;101674.53;;;16.01;31.30
16120;BME280;12670;53.502;10.252;2023-04-07T10:59:29;101670.94;;;16.54;31.60
16120;BME280;12670;53.502;10.252;2023-04-07T11:02:33;101670.56;;;17.28;32.04
16120;BME280;12670;53.502;10.252;2023-04-07T11:05:36;101673.00;;;17.32;30.54
16120;BME280;12670;53.502;10.252;2023-04-07T11:08:40;101670.88;;;17.87;29.59
16120;BME280;12670;53.502;10.252;2023-04-07T11:11:43;101659.97;;;18.50;31.46
16120;BME280;12670;53.502;10.252;2023-04-07T11:14:49;101662.09;;;18.15;28.51
16120;BME280;12670;53.502;10.252;2023-04-07T11:18:14;101664.63;;;18.32;27.80
16120;BME280;12670;53.502;10.252;2023-04-07T11:21:18;101652.03;;;18.18;29.61
16120;BME280;12670;53.502;10.252;2023-04-07T11:24:34;101668.03;;;19.23;27.61
16120;BME280;12670;53.502;10.252;2023-04-07T11:27:38;101664.50;;;18.63;28.89
16120;BME280;12670;53.502;10.252;2023-04-07T11:30:47;101666.22;;;19.09;29.01
16120;BME280;12670;53.502;10.252;2023-04-07T11:33:52;101666.38;;;19.34;28.81
16120;BME280;12670;53.502;10.252;2023-04-07T11:36:57;101671.41;;;18.83;27.73
16120;BME280;12670;53.502;10.252;2023-04-07T11:40:02;101668.59;;;17.63;27.82
16120;BME280;12670;53.502;10.252;2023-04-07T11:43:15;101669.16;;;18.31;27.45
16120;BME280;12670;53.502;10.252;2023-04-07T11:46:19;101676.97;;;18.80;24.69
16120;BME280;12670;53.502;10.252;2023-04-07T11:49:23;101677.53;;;19.28;24.90
16120;BME280;12670;53.502;10.252;2023-04-07T11:52:26;101662.66;;;19.08;25.66
16120;BME280;12670;53.502;10.252;2023-04-07T11:55:29;101669.06;;;19.63;24.95
16120;BME280;12670;53.502;10.252;2023-04-07T11:58:32;101671.56;;;20.20;24.74
16120;BME280;12670;53.502;10.252;2023-04-07T12:01:39;101665.97;;;19.69;25.94
16120;BME280;12670;53.502;10.252;2023-04-07T12:04:54;101672.81;;;20.02;26.44
16120;BME280;12670;53.502;10.252;2023-04-07T12:07:57;101667.97;;;19.80;27.39
16120;BME280;12670;53.502;10.252;2023-04-07T12:11:02;101674.63;;;19.45;26.83
16120;BME280;12670;53.502;10.252;2023-04-07T12:14:05;101667.47;;;18.15;28.78
16120;BME280;12670;53.502;10.252;2023-04-07T12:17:20;101664.09;;;19.42;27.47
16120;BME280;12670;53.502;10.252;2023-04-07T12:20:23;101657.53;;;20.15;28.24
16120;BME280;12670;53.502;10.252;2023-04-07T12:23:26;101666.09;;;20.34;26.50
16120;BME280;12670;53.502;10.252;2023-04-07T12:26:29;101669.81;;;18.65;27.49
16120;BME280;12670;53.502;10.252;2023-04-07T12:29:32;101656.94;;;19.56;27.19
16120;BME280;12670;53.502;10.252;2023-04-07T12:32:36;101671.97;;;19.03;28.16
16120;BME280;12670;53.502;10.252;2023-04-07T12:35:39;101675.25;;;19.36;28.23
16120;BME280;12670;53.502;10.252;2023-04-07T12:38:42;101674.69;;;18.88;29.08
16120;BME280;12670;53.502;10.252;2023-04-07T12:41:44;101679.34;;;19.70;27.72
16120;BME280;12670;53.502;10.252;2023-04-07T12:44:48;101682.31;;;19.52;28.40
16120;BME280;12670;53.502;10.252;2023-04-07T12:47:53;101671.44;;;20.48;28.28
16120;BME280;12670;53.502;10.252;2023-04-07T12:50:56;101674.66;;;20.41;26.74
16120;BME280;12670;53.502;10.252;2023-04-07T12:53:58;101674.75;;;20.00;26.44
16120;BME280;12670;53.502;10.252;2023-04-07T12:57:02;101673.16;;;19.13;27.86
16120;BME280;12670;53.502;10.252;2023-04-07T13:00:05;101675.47;;;19.75;26.76
16120;BME280;12670;53.502;10.252;2023-04-07T13:03:09;101662.50;;;18.53;26.43
16120;BME280;12670;53.502;10.252;2023-04-07T13:06:12;101667.84;;;18.97;27.92
16120;BME280;12670;53.502;10.252;2023-04-07T13:09:15;101667.28;;;18.92;28.14
16120;BME280;12670;53.502;10.252;2023-04-07T13:12:18;101659.00;;;18.36;26.28
16120;BME280;12670;53.502;10.252;2023-04-07T13:15:20;101669.47;;;19.42;26.97
16120;BME280;12670;53.502;10.252;2023-04-07T13:18:24;101658.31;;;18.03;27.79
16120;BME280;12670;53.502;10.252;2023-04-07T13:21:27;101673.38;;;17.42;30.64
16120;BME280;12670;53.502;10.252;2023-04-07T13:24:47;101667.56;;;17.18;30.21
16120;BME280;12670;53.502;10.252;2023-04-07T13:27:50;101663.53;;;17.90;29.50
16120;BME280;12670;53.502;10.252;2023-04-07T13:30:52;101662.63;;;18.05;30.04
16120;BME280;12670;53.502;10.252;2023-04-07T13:33:56;101663.84;;;18.60;29.42
16120;BME280;12670;53.502;10.252;2023-04-07T13:37:00;101668.78;;;18.37;29.60
16120;BME280;12670;53.502;10.252;2023-04-07T13:40:04;101668.69;;;17.62;30.91
16120;BME280;12670;53.502;10.252;2023-04-07T13:43:07;101669.94;;;17.72;31.00
16120;BME280;12670;53.502;10.252;2023-04-07T13:46:11;101673.16;;;17.29;31.26
16120;BME280;12670;53.502;10.252;2023-04-07T13:49:31;101676.44;;;16.51;31.93
16120;BME280;12670;53.502;10.252;2023-04-07T13:52:33;101675.50;;;16.87;32.42
16120;BME280;12670;53.502;10.252;2023-04-07T13:55:37;101674.88;;;17.15;31.23
16120;BME280;12670;53.502;10.252;2023-04-07T13:58:41;101673.69;;;17.20;32.96
16120;BME280;12670;53.502;10.252;2023-04-07T14:01:43;101675.47;;;17.84;31.55
16120;BME280;12670;53.502;10.252;2023-04-07T14:04:48;101675.19;;;17.57;30.32
16120;BME280;12670;53.502;10.252;2023-04-07T14:07:50;101682.28;;;17.43;31.53
16120;BME280;12670;53.502;10.252;2023-04-07T14:10:53;101678.28;;;17.18;33.30
16120;BME280;12670;53.502;10.252;2023-04-07T14:13:56;101676.94;;;16.24;33.29
16120;BME280;12670;53.502;10.252;2023-04-07T14:16:58;101676.69;;;16.46;32.14
16120;BME280;12670;53.502;10.252;2023-04-07T14:20:03;101677.00;;;15.11;32.13
16120;BME280;12670;53.502;10.252;2023-04-07T14:23:06;101672.22;;;14.99;34.67
16120;BME280;12670;53.502;10.252;2023-04-07T14:26:09;101671.47;;;14.56;37.00
16120;BME280;12670;53.502;10.252;2023-04-07T14:29:13;101669.50;;;15.19;39.05
16120;BME280;12670;53.502;10.252;2023-04-07T14:32:15;101674.47;;;15.08;41.25
16120;BME280;12670;53.502;10.252;2023-04-07T14:35:19;101676.06;;;14.73;43.20
16120;BME280;12670;53.502;10.252;2023-04-07T14:38:22;101674.00;;;13.95;45.70
16120;BME280;12670;53.502;10.252;2023-04-07T14:41:26;101675.69;;;13.76;46.69
16120;BME280;12670;53.502;10.252;2023-04-07T14:44:29;101681.56;;;13.62;47.65
16120;BME280;12670;53.502;10.252;2023-04-07T14:47:31;101681.94;;;13.29;48.58
16120;BME280;12670;53.502;10.252;2023-04-07T14:50:36;101686.75;;;12.95;49.90
16120;BME280;12670;53.502;10.252;2023-04-07T14:53:39;101693.84;;;12.71;50.04
16120;BME280;12670;53.502;10.252;2023-04-07T14:56:43;101691.53;;;12.35;51.58
16120;BME280;12670;53.502;10.252;2023-04-07T14:59:46;101694.59;;;12.49;51.54
16120;BME280;12670;53.502;10.252;2023-04-07T15:02:49;101702.75;;;12.70;51.73
16120;BME280;12670;53.502;10.252;2023-04-07T15:05:56;101703.09;;;12.61;52.10
16120;BME280;12670;53.502;10.252;2023-04-07T15:08:59;101712.00;;;12.07;54.84
16120;BME280;12670;53.502;10.252;2023-04-07T15:12:02;101714.88;;;12.27;53.81
16120;BME280;12670;53.502;10.252;2023-04-07T15:15:06;101711.59;;;12.45;52.94
16120;BME280;12670;53.502;10.252;2023-04-07T15:18:08;101704.72;;;12.12;54.09
16120;BME280;12670;53.502;10.252;2023-04-07T15:21:13;101712.34;;;11.38;55.87
16120;BME280;12670;53.502;10.252;2023-04-07T15:24:16;101719.13;;;11.17;57.19
16120;BME280;12670;53.502;10.252;2023-04-07T15:27:19;101715.00;;;11.38;58.05
16120;BME280;12670;53.502;10.252;2023-04-07T15:30:22;101720.75;;;11.23;57.62
16120;BME280;12670;53.502;10.252;2023-04-07T15:33:25;101725.94;;;10.97;59.11
16120;BME280;12670;53.502;10.252;2023-04-07T15:36:29;101728.00;;;11.16;58.29
16120;BME280;12670;53.502;10.252;2023-04-07T15:39:32;101731.09;;;10.68;60.79
16120;BME280;12670;53.502;10.252;2023-04-07T15:42:35;101731.47;;;10.87;60.26
16120;BME280;12670;53.502;10.252;2023-04-07T15:45:43;101733.72;;;10.70;61.62
16120;BME280;12670;53.502;10.252;2023-04-07T15:48:46;101731.97;;;10.69;62.15
16120;BME280;12670;53.502;10.252;2023-04-07T15:51:50;101740.22;;;10.58;62.19
16120;BME280;12670;53.502;10.252;2023-04-07T15:54:52;101746.41;;;10.23;64.88
16120;BME280;12670;53.502;10.252;2023-04-07T15:57:55;101742.09;;;10.18;64.72